Time;durP1;ratioP1;P1;durP2;ratioP2;P2;SDS_P1;SDS_P2;PMS_P1;PMS_P2;Temp;Humidity;BMP_temperature;BMP_pressure;BME280_temperature;BME280_humidity;BME280_pressure;Samples;Min_cycle;Max_cycle;Signal;HPM_P1;HPM_P2
2023/06/02 00:02:23;;;;;;;7.97;7.28;;;;;;;15.27;100.00;94950.75;4885476;29;20487;-85
2023/06/02 00:04:51;;;;;;;9.32;8.63;;;;;;;15.25;100.00;94968.41;4886775;29;20056;-87
2023/06/02 00:07:16;;;;;;;10.70;9.88;;;;;;;15.12;100.00;95002.28;4884752;29;20040;-86
2023/06/02 00:09:42;;;;;;;9.10;8.30;;;;;;;15.00;100.00;95053.44;4886267;29;20024;-85
2023/06/02 00:12:10;;;;;;;9.23;8.35;;;;;;;15.07;100.00;95076.94;4881753;29;20036;-86
2023/06/02 00:14:42;;;;;;;9.18;8.38;;;;;;;15.11;100.00;95052.88;4884689;29;20028;-86
2023/06/02 00:17:08;;;;;;;8.80;7.85;;;;;;;15.17;100.00;95046.06;4870137;29;20442;-86
2023/06/02 00:19:33;;;;;;;11.02;9.02;;;;;;;15.08;100.00;95037.63;4868842;29;20028;-84
2023/06/02 00:22:03;;;;;;;10.23;8.45;;;;;;;15.06;100.00;95063.09;4885726;29;20040;-85
2023/06/02 00:24:29;;;;;;;9.38;8.68;;;;;;;14.98;100.00;95059.84;4884710;29;20032;-86
2023/06/02 00:26:54;;;;;;;9.27;8.48;;;;;;;15.01;100.00;95057.66;4869301;29;20027;-87
2023/06/02 00:29:20;;;;;;;9.63;8.63;;;;;;;14.86;100.00;95023.09;4869384;29;20112;-87
2023/06/02 00:31:45;;;;;;;9.48;8.68;;;;;;;14.96;100.00;95030.56;4886793;29;20136;-92
2023/06/02 00:34:11;;;;;;;10.63;9.82;;;;;;;14.94;100.00;95040.38;4887096;29;20377;-87
2023/06/02 00:36:36;;;;;;;9.95;9.13;;;;;;;14.98;100.00;95037.19;4869185;29;20036;-89
2023/06/02 00:39:02;;;;;;;10.50;9.68;;;;;;;14.92;100.00;95056.22;4887013;29;20029;-87
2023/06/02 00:41:28;;;;;;;10.75;9.75;;;;;;;14.96;100.00;95065.25;4868879;29;20016;-85
2023/06/02 00:43:53;;;;;;;10.73;9.75;;;;;;;15.09;100.00;95062.69;4869001;29;20024;-86
2023/06/02 00:46:19;;;;;;;9.90;9.10;;;;;;;15.13;100.00;95045.66;4886535;29;20030;-87
2023/06/02 00:48:47;;;;;;;10.07;8.95;;;;;;;15.22;100.00;95039.25;4885610;29;20028;-85
2023/06/02 00:51:12;;;;;;;13.07;9.68;;;;;;;15.20;100.00;95037.84;4885729;29;20063;-84
2023/06/02 00:53:38;;;;;;;10.10;9.15;;;;;;;15.17;100.00;95044.28;4885141;29;20446;-86
2023/06/02 00:56:04;;;;;;;10.32;9.30;;;;;;;15.19;100.00;95055.31;4869076;29;20040;-86
2023/06/02 00:58:30;;;;;;;9.65;8.85;;;;;;;15.10;100.00;95060.91;4868421;29;20323;-87
2023/06/02 01:00:56;;;;;;;12.48;9.85;;;;;;;15.05;100.00;95066.72;4851036;29;20113;-86
2023/06/02 01:03:21;;;;;;;10.32;9.52;;;;;;;15.10;100.00;95064.31;4885262;29;20495;-87
2023/06/02 01:05:48;;;;;;;10.23;9.40;;;;;;;15.17;100.00;95086.03;4868755;29;20036;-89
2023/06/02 01:08:16;;;;;;;18.88;13.98;;;;;;;15.18;100.00;95079.00;4883682;29;20080;-85
2023/06/02 01:10:41;;;;;;;13.85;12.63;;;;;;;15.12;100.00;95085.78;4877226;29;20039;-85
2023/06/02 01:13:07;;;;;;;15.60;13.95;;;;;;;15.08;100.00;95102.84;4885651;29;21866;-87
2023/06/02 01:15:33;;;;;;;28.80;21.20;;;;;;;15.13;100.00;95095.22;4868491;29;20469;-86
2023/06/02 01:17:59;;;;;;;16.65;14.00;;;;;;;14.84;100.00;95103.31;4885894;29;20546;-87
2023/06/02 01:20:25;;;;;;;11.30;10.40;;;;;;;14.73;100.00;95120.34;4885503;29;20036;-86
2023/06/02 01:23:16;;;;;;;10.20;9.23;;;;;;;14.69;100.00;95123.50;4868585;29;20111;-87
2023/06/02 01:25:42;;;;;;;9.40;8.70;;;;;;;14.80;100.00;95114.34;4884791;29;20058;-88
2023/06/02 01:28:08;;;;;;;9.98;8.90;;;;;;;14.61;100.00;95106.19;4884882;29;20040;-86
2023/06/02 01:30:34;;;;;;;10.00;9.20;;;;;;;14.69;100.00;95105.25;4870387;29;20522;-88
2023/06/02 01:33:22;;;;;;;9.40;8.45;;;;;;;14.75;100.00;95088.84;4889082;29;20060;-87
2023/06/02 01:35:50;;;;;;;11.37;8.07;;;;;;;14.76;100.00;95074.81;4871841;29;20040;-87
2023/06/02 01:38:17;;;;;;;9.88;8.88;;;;;;;14.82;100.00;95061.00;4887634;29;20401;-86
2023/06/02 01:40:43;;;;;;;9.85;8.85;;;;;;;14.80;100.00;95059.59;4871761;29;20024;-88
2023/06/02 01:43:10;;;;;;;9.68;8.38;;;;;;;14.75;100.00;95053.16;4886971;29;20033;-87
2023/06/02 01:45:37;;;;;;;10.05;9.05;;;;;;;14.82;100.00;95047.16;4871528;29;20044;-84
2023/06/02 01:48:04;;;;;;;10.00;9.23;;;;;;;14.84;100.00;95051.16;4856455;29;20033;-85
2023/06/02 01:50:30;;;;;;;10.68;9.63;;;;;;;14.83;100.00;95062.63;4887842;29;20442;-86
2023/06/02 01:52:56;;;;;;;10.60;9.60;;;;;;;14.85;100.00;95084.06;4889032;29;20100;-86
2023/06/02 01:55:21;;;;;;;10.18;9.38;;;;;;;14.77;100.00;95099.88;4871342;29;20501;-88
2023/06/02 01:57:47;;;;;;;9.77;8.75;;;;;;;14.77;100.00;95094.66;4887898;29;20028;-87
2023/06/02 02:00:13;;;;;;;8.93;8.30;;;;;;;14.77;100.00;95085.03;4871731;29;20499;-86
2023/06/02 02:02:38;;;;;;;9.57;8.65;;;;;;;14.79;100.00;95066.59;4887444;29;20041;-86
2023/06/02 02:05:04;;;;;;;9.10;8.27;;;;;;;14.77;100.00;95064.16;4871588;29;20024;-86
2023/06/02 02:07:30;;;;;;;11.30;8.93;;;;;;;14.68;100.00;95043.66;4862059;29;20084;-83
2023/06/02 02:09:56;;;;;;;10.05;9.25;;;;;;;14.67;100.00;95044.69;4889473;29;20041;-86
2023/06/02 02:12:22;;;;;;;9.73;8.88;;;;;;;14.69;100.00;95034.88;4871408;29;20033;-84
2023/06/02 02:14:50;;;;;;;9.82;9.02;;;;;;;14.68;100.00;95030.63;4872032;29;20120;-86
2023/06/02 02:17:17;;;;;;;9.30;8.38;;;;;;;14.71;100.00;95028.44;4887973;29;20031;-82
2023/06/02 02:19:45;;;;;;;9.60;8.52;;;;;;;14.73;100.00;95030.88;4871607;29;20032;-84
2023/06/02 02:22:11;;;;;;;9.55;8.85;;;;;;;14.70;100.00;95042.47;4887941;29;20033;-85
2023/06/02 02:24:37;;;;;;;9.80;8.85;;;;;;;14.62;100.00;95047.88;4887295;29;20431;-85
2023/06/02 02:27:03;;;;;;;8.40;7.70;;;;;;;14.68;100.00;95049.69;4888046;29;20025;-85
2023/06/02 02:29:28;;;;;;;9.02;8.23;;;;;;;14.72;100.00;95070.97;4871159;29;20048;-84
2023/06/02 02:31:54;;;;;;;9.60;8.68;;;;;;;14.64;100.00;95077.13;4886640;29;20502;-84
2023/06/02 02:34:21;;;;;;;9.05;8.35;;;;;;;14.63;100.00;95085.16;4887413;29;20124;-83
2023/06/02 02:36:48;;;;;;;14.45;10.18;;;;;;;14.42;100.00;95090.44;4888306;29;20025;-83
2023/06/02 02:39:14;;;;;;;9.88;8.63;;;;;;;14.49;100.00;95112.13;4887453;29;20439;-85
2023/06/02 02:41:39;;;;;;;11.23;8.98;;;;;;;14.48;100.00;95100.13;4888095;29;20061;-85
2023/06/02 02:44:05;;;;;;;10.45;8.65;;;;;;;14.38;100.00;95105.66;4870863;29;20036;-85
2023/06/02 02:46:30;;;;;;;9.45;8.63;;;;;;;14.32;100.00;95113.41;4887584;29;20634;-85
2023/06/02 02:48:56;;;;;;;9.70;8.57;;;;;;;14.45;100.00;95114.31;4887974;29;20032;-83
2023/06/02 02:51:22;;;;;;;9.85;8.90;;;;;;;14.62;100.00;95107.00;4887307;29;20029;-85
2023/06/02 02:53:47;;;;;;;10.75;9.30;;;;;;;14.61;100.00;95094.97;4886922;29;20037;-83
2023/06/02 02:56:13;;;;;;;10.10;8.93;;;;;;;14.61;100.00;95101.00;4887383;29;20063;-83
2023/06/02 02:58:39;;;;;;;10.52;9.55;;;;;;;14.59;100.00;95110.81;4870830;29;20119;-85
2023/06/02 03:01:04;;;;;;;11.45;9.32;;;;;;;14.55;100.00;95104.38;4870393;29;20512;-83
2023/06/02 03:03:32;;;;;;;12.32;8.55;;;;;;;14.48;100.00;95081.88;4870403;29;20195;-86
2023/06/02 03:05:57;;;;;;;8.93;8.13;;;;;;;14.44;100.00;95072.81;4887986;29;20380;-85
2023/06/02 03:08:23;;;;;;;8.85;8.15;;;;;;;14.46;100.00;95081.25;4870128;29;20088;-85
2023/06/02 03:10:48;;;;;;;9.43;8.63;;;;;;;14.45;100.00;95085.66;4871564;29;20519;-88
2023/06/02 03:13:14;;;;;;;9.15;8.25;;;;;;;14.54;100.00;95076.72;4869814;29;20453;-89
2023/06/02 03:15:39;;;;;;;11.15;8.13;;;;;;;14.62;100.00;95060.91;4858822;29;20024;-87
2023/06/02 03:18:05;;;;;;;9.65;8.18;;;;;;;14.80;100.00;95025.69;4887096;29;20468;-87
2023/06/02 03:20:31;;;;;;;9.18;8.27;;;;;;;14.86;100.00;94998.84;4887065;29;20044;-87
2023/06/02 03:22:57;;;;;;;12.45;8.45;;;;;;;14.78;100.00;94984.16;4869361;29;20511;-89
2023/06/02 03:25:23;;;;;;;12.20;11.13;;;;;;;14.88;100.00;94997.63;4869780;29;20088;-87
2023/06/02 03:27:50;;;;;;;10.73;9.82;;;;;;;14.96;100.00;94957.53;4870958;29;20033;-91
2023/06/02 03:30:16;;;;;;;10.73;9.65;;;;;;;15.46;100.00;94925.66;4885797;29;20028;-88
2023/06/02 03:32:41;;;;;;;10.38;9.45;;;;;;;17.11;100.00;94756.69;4872710;29;20024;-83
2023/06/02 03:35:07;;;;;;;10.15;9.20;;;;;;;17.66;100.00;94662.44;4869882;29;20032;-82
2023/06/02 03:37:33;;;;;;;8.25;7.22;;;;;;;18.19;100.00;94644.16;4869238;29;20040;-84
2023/06/02 03:39:58;;;;;;;8.98;8.13;;;;;;;18.51;100.00;94624.50;4869615;29;20032;-82
2023/06/02 03:42:24;;;;;;;8.07;7.38;;;;;;;18.82;100.00;94610.22;4869361;29;20028;-81
2023/06/02 03:44:49;;;;;;;6.95;6.25;;;;;;;19.32;100.00;94592.91;4887093;29;20564;-83
2023/06/02 03:47:15;;;;;;;14.68;6.63;;;;;;;19.98;100.00;94594.13;4854011;29;20051;-80
2023/06/02 03:49:41;;;;;;;6.97;6.30;;;;;;;20.22;100.00;94590.34;4870017;29;20024;-85
2023/06/02 03:52:06;;;;;;;6.25;5.65;;;;;;;20.06;100.00;94592.94;4852772;29;20033;-85
2023/06/02 03:54:32;;;;;;;5.57;5.05;;;;;;;20.17;100.00;94582.34;4886157;29;20024;-84
2023/06/02 03:56:57;;;;;;;5.78;4.85;;;;;;;20.22;100.00;94576.38;4869711;29;20096;-86
2023/06/02 03:59:23;;;;;;;8.90;5.60;;;;;;;20.60;100.00;94584.34;4869136;29;20511;-87
2023/06/02 04:01:48;;;;;;;9.10;7.25;;;;;;;20.69;100.00;94579.47;4886412;29;20048;-83
2023/06/02 04:04:14;;;;;;;10.75;6.70;;;;;;;21.07;100.00;94590.00;4886119;29;20036;-82
2023/06/02 04:06:42;;;;;;;9.60;8.65;;;;;;;21.64;97.61;94582.50;4868313;29;20052;-83
2023/06/02 04:09:11;;;;;;;;;;;;;;;21.48;99.77;94586.03;4869388;29;20135;-82
2023/06/02 04:11:36;;;;;;;8.18;7.15;;;;;;;22.03;94.61;94580.53;4869336;29;20623;-84
2023/06/02 04:14:02;;;;;;;9.80;6.78;;;;;;;21.88;94.33;94572.47;4853665;29;20031;-82
2023/06/02 04:16:28;;;;;;;6.10;5.47;;;;;;;22.02;89.84;94577.13;4851736;29;20028;-82
2023/06/02 04:18:53;;;;;;;7.35;5.15;;;;;;;22.44;88.79;94577.19;4885741;29;20024;-84
2023/06/02 04:21:19;;;;;;;5.47;4.72;;;;;;;22.77;86.63;94577.94;4884848;29;20027;-82
2023/06/02 04:23:44;;;;;;;7.30;4.97;;;;;;;23.22;85.06;94578.19;4885856;29;20060;-84
2023/06/02 04:26:10;;;;;;;6.57;4.55;;;;;;;23.10;85.80;94574.97;4869206;29;20036;-83
2023/06/02 04:28:35;;;;;;;5.20;4.70;;;;;;;23.44;81.24;94573.53;4850741;29;20159;-84
2023/06/02 04:31:02;;;;;;;5.30;4.82;;;;;;;23.53;79.77;94574.66;4880749;29;20028;-83
2023/06/02 04:33:27;;;;;;;5.10;4.70;;;;;;;23.78;76.29;94573.91;4889690;29;20036;-84
2023/06/02 04:35:53;;;;;;;5.22;4.82;;;;;;;23.49;77.07;94568.28;4881311;29;20034;-85
2023/06/02 04:38:19;;;;;;;4.93;4.50;;;;;;;24.25;72.31;94571.06;4871054;29;20095;-85
2023/06/02 04:40:44;;;;;;;4.50;4.20;;;;;;;24.38;72.98;94570.53;4857304;29;20418;-85
2023/06/02 04:43:10;;;;;;;4.78;4.32;;;;;;;24.25;74.41;94572.91;4874174;29;20044;-85
2023/06/02 04:45:35;;;;;;;4.20;3.85;;;;;;;25.15;70.74;94570.16;4888623;29;20103;-86
2023/06/02 04:48:03;;;;;;;4.85;4.43;;;;;;;24.95;69.27;94569.41;4885000;29;20033;-85
2023/06/02 04:50:29;;;;;;;4.90;4.40;;;;;;;25.04;67.57;94579.19;4883806;29;20041;-85
2023/06/02 04:52:54;;;;;;;6.35;4.60;;;;;;;25.41;66.48;94572.72;4867002;29;20076;-85
2023/06/02 04:55:20;;;;;;;6.00;4.22;;;;;;;25.88;63.29;94580.22;4867758;29;20411;-86
2023/06/02 04:57:46;;;;;;;4.93;4.43;;;;;;;26.27;61.58;94580.22;4884399;29;20024;-87
2023/06/02 05:00:12;;;;;;;4.22;3.83;;;;;;;26.18;60.31;94583.47;4852891;29;20071;-86
2023/06/02 05:02:38;;;;;;;4.30;3.90;;;;;;;26.68;57.68;94582.25;4868637;29;20064;-84
2023/06/02 05:05:05;;;;;;;4.60;4.30;;;;;;;26.17;59.13;94589.84;4868824;29;20621;-81
2023/06/02 05:07:30;;;;;;;4.53;4.10;;;;;;;26.79;56.86;94582.16;4869155;29;20052;-84
2023/06/02 05:09:56;;;;;;;4.30;3.90;;;;;;;27.62;53.68;94575.41;4885339;29;20459;-84
2023/06/02 05:12:22;;;;;;;4.13;3.83;;;;;;;27.64;53.44;94583.13;4869235;29;20025;-81
2023/06/02 05:14:48;;;;;;;4.15;3.83;;;;;;;28.04;51.64;94582.56;4868035;29;20531;-86
2023/06/02 05:17:19;;;;;;;5.15;3.33;;;;;;;28.87;50.67;94583.69;4869605;29;20024;-88
2023/06/02 05:19:45;;;;;;;4.18;3.67;;;;;;;29.43;48.88;94581.59;4861064;29;20069;-85
2023/06/02 05:22:10;;;;;;;4.10;3.57;;;;;;;29.33;46.85;94587.13;4882883;29;20067;-87
2023/06/02 05:24:35;;;;;;;4.88;4.35;;;;;;;29.70;46.52;94586.91;4884296;29;20072;-88
2023/06/02 05:27:01;;;;;;;4.43;4.03;;;;;;;29.86;45.91;94586.63;4885599;29;20052;-87
2023/06/02 05:29:26;;;;;;;4.38;3.42;;;;;;;30.78;43.94;94585.00;4886858;29;20039;-88
2023/06/02 05:31:52;;;;;;;4.97;3.63;;;;;;;30.83;44.06;94576.84;4885708;29;20108;-87
2023/06/02 05:34:17;;;;;;;4.40;3.53;;;;;;;30.98;44.09;94573.03;4869976;29;20037;-88
2023/06/02 05:36:43;;;;;;;4.20;3.70;;;;;;;32.23;40.23;94573.22;4875668;29;20573;-86
2023/06/02 05:39:10;;;;;;;3.67;3.38;;;;;;;32.04;39.69;94572.75;4883522;29;20036;-86
2023/06/02 05:41:35;;;;;;;4.20;3.80;;;;;;;33.03;37.98;94581.63;4868470;29;20034;-85
2023/06/02 05:44:01;;;;;;;3.75;3.30;;;;;;;33.48;37.44;94577.38;4869285;29;20033;-85
2023/06/02 05:46:26;;;;;;;3.45;3.25;;;;;;;33.94;37.98;94575.72;4885367;29;20164;-84
2023/06/02 05:48:51;;;;;;;4.70;3.90;;;;;;;33.62;37.73;94583.34;4885076;29;20040;-85
2023/06/02 05:51:17;;;;;;;3.80;3.37;;;;;;;33.95;36.94;94579.97;4869242;29;20508;-82
2023/06/02 05:53:42;;;;;;;3.70;3.43;;;;;;;33.32;37.04;94585.22;4885585;29;20052;-84
2023/06/02 05:56:08;;;;;;;5.07;3.70;;;;;;;33.82;37.69;94585.28;4868725;29;20131;-85
2023/06/02 05:58:39;;;;;;;4.83;3.17;;;;;;;34.09;36.26;94578.63;4883335;29;20025;-85
2023/06/02 06:01:05;;;;;;;3.60;3.30;;;;;;;35.23;34.51;94578.06;4865562;29;20047;-88
2023/06/02 06:03:30;;;;;;;4.47;3.40;;;;;;;33.56;35.78;94586.50;4868851;29;20770;-85
2023/06/02 06:05:56;;;;;;;3.30;3.00;;;;;;;35.17;33.97;94587.50;4866394;29;20483;-85
2023/06/02 06:08:21;;;;;;;4.10;3.30;;;;;;;34.65;34.81;94595.28;4880303;29;20310;-86
2023/06/02 06:10:47;;;;;;;3.57;2.87;;;;;;;34.96;35.38;94592.94;4867281;29;20634;-85
2023/06/02 06:13:13;;;;;;;3.47;3.17;;;;;;;35.04;34.78;94592.06;4878923;29;20037;-85
2023/06/02 06:15:38;;;;;;;6.07;3.60;;;;;;;34.75;34.63;94589.50;4884629;29;20099;-84
2023/06/02 06:18:04;;;;;;;4.28;3.88;;;;;;;34.47;34.26;94585.78;4887920;29;20052;-84
2023/06/02 06:20:30;;;;;;;3.88;3.45;;;;;;;35.04;35.89;94589.38;4869241;29;20048;-83
2023/06/02 06:22:56;;;;;;;3.63;3.33;;;;;;;33.81;35.50;94583.69;4884955;29;20124;-82
2023/06/02 06:25:21;;;;;;;4.28;3.67;;;;;;;32.57;37.44;94587.72;4885274;29;20028;-85
2023/06/02 06:27:47;;;;;;;6.63;3.50;;;;;;;29.38;43.48;94592.34;4869871;29;20725;-85
2023/06/02 06:30:12;;;;;;;5.30;3.30;;;;;;;28.88;44.83;94594.06;4871208;29;20234;-85
2023/06/02 06:32:38;;;;;;;4.43;3.20;;;;;;;29.40;44.77;94594.75;4885319;29;20080;-85
2023/06/02 06:35:03;;;;;;;4.85;3.38;;;;;;;28.58;46.25;94587.34;4869012;29;20032;-86
2023/06/02 06:37:29;;;;;;;3.65;3.35;;;;;;;28.70;44.69;94585.06;4884280;29;20032;-83
2023/06/02 06:39:55;;;;;;;3.63;3.10;;;;;;;31.54;40.74;94580.34;4867951;29;20040;-83
2023/06/02 06:42:21;;;;;;;4.00;2.85;;;;;;;34.87;37.13;94587.63;4885228;29;20136;-86
2023/06/02 06:44:49;;;;;;;7.23;3.83;;;;;;;35.17;35.27;94582.91;4885411;29;20111;-86
2023/06/02 06:47:18;;;;;;;4.75;3.92;;;;;;;34.47;35.54;94586.56;4880950;29;20304;-81
2023/06/02 06:49:43;;;;;;;4.27;3.77;;;;;;;32.29;37.85;94584.56;4867207;29;20068;-85
2023/06/02 06:52:08;;;;;;;4.07;3.67;;;;;;;30.38;42.31;94591.28;4867030;29;20442;-84
2023/06/02 06:54:34;;;;;;;6.45;4.05;;;;;;;29.77;43.47;94586.50;4865841;29;20403;-80
2023/06/02 06:56:59;;;;;;;3.75;3.42;;;;;;;29.72;45.32;94574.06;4885066;29;20035;-87
2023/06/02 06:59:25;;;;;;;4.57;3.40;;;;;;;29.86;45.75;94573.25;4886627;29;20099;-81
2023/06/02 07:01:50;;;;;;;3.28;3.00;;;;;;;29.83;45.91;94568.53;4853106;29;20600;-83
2023/06/02 07:04:15;;;;;;;3.47;3.17;;;;;;;29.53;45.67;94575.25;4878947;29;20396;-86
2023/06/02 07:06:41;;;;;;;4.65;3.50;;;;;;;29.44;45.77;94577.06;4886039;29;20044;-81
2023/06/02 07:09:08;;;;;;;6.15;3.50;;;;;;;32.26;40.36;94574.47;4887176;29;20052;-82
2023/06/02 07:11:34;;;;;;;4.43;3.80;;;;;;;30.32;43.58;94579.94;4895591;29;20060;-79
2023/06/02 07:13:59;;;;;;;5.78;3.58;;;;;;;29.06;46.98;94585.19;4885935;29;20062;-80
2023/06/02 07:16:25;;;;;;;5.70;3.67;;;;;;;28.75;47.31;94582.28;4867193;29;20391;-82
2023/06/02 07:18:50;;;;;;;5.68;3.50;;;;;;;28.62;47.71;94584.88;4866387;29;20442;-84
2023/06/02 07:21:16;;;;;;;4.45;3.55;;;;;;;28.12;48.76;94589.16;4870835;29;20123;-84
2023/06/02 07:23:41;;;;;;;6.43;3.33;;;;;;;27.90;49.10;94584.38;4869561;29;20505;-81
2023/06/02 07:26:07;;;;;;;5.72;3.53;;;;;;;28.09;48.62;94584.41;4885325;29;20040;-79
2023/06/02 07:28:32;;;;;;;3.65;3.35;;;;;;;27.46;42.46;94571.38;4884814;29;20028;-84
2023/06/02 07:30:58;;;;;;;4.43;3.60;;;;;;;26.56;44.50;94583.69;4884284;29;20597;-79
2023/06/02 07:33:23;;;;;;;3.88;3.42;;;;;;;28.01;45.32;94593.00;4862778;29;20516;-78
2023/06/02 07:35:49;;;;;;;4.38;3.63;;;;;;;27.20;41.97;94588.66;4848923;29;20040;-85
2023/06/02 07:38:14;;;;;;;5.13;3.38;;;;;;;26.39;43.18;94593.94;4864619;29;20033;-80
2023/06/02 07:40:40;;;;;;;6.78;3.10;;;;;;;27.27;42.41;94583.81;4877971;29;20238;-79
2023/06/02 07:43:05;;;;;;;3.60;3.30;;;;;;;26.02;44.55;94592.56;4883774;29;20439;-85
2023/06/02 07:45:31;;;;;;;5.43;3.63;;;;;;;27.02;44.99;94592.06;4866598;29;20113;-86
2023/06/02 07:47:56;;;;;;;4.00;3.70;;;;;;;26.53;42.72;94587.72;4886154;29;20044;-81
2023/06/02 07:50:22;;;;;;;8.68;3.58;;;;;;;26.22;41.18;94594.34;4885234;29;20048;-81
2023/06/02 07:52:47;;;;;;;13.70;4.63;;;;;;;26.33;42.48;94595.84;4854346;29;20024;-81
2023/06/02 07:55:13;;;;;;;4.47;3.67;;;;;;;25.41;43.74;94589.41;4883836;29;20032;-83
2023/06/02 07:57:38;;;;;;;4.97;3.88;;;;;;;26.17;45.12;94594.34;4882955;29;20439;-82
2023/06/02 08:00:11;;;;;;;5.40;4.03;;;;;;;26.67;44.62;94583.34;4870391;29;20025;-86
2023/06/02 08:02:37;;;;;;;5.80;3.50;;;;;;;26.52;43.26;94588.00;4864574;29;20066;-82
2023/06/02 08:05:04;;;;;;;5.93;3.95;;;;;;;26.44;42.24;94586.72;4883119;29;20454;-89
2023/06/02 08:07:29;;;;;;;4.45;3.83;;;;;;;26.29;44.54;94586.06;4877471;29;20097;-83
2023/06/02 08:09:55;;;;;;;4.05;3.70;;;;;;;26.10;44.73;94577.94;4884956;29;20040;-88
2023/06/02 08:12:22;;;;;;;3.75;3.45;;;;;;;26.67;45.71;94570.06;4885457;29;20044;-81
2023/06/02 08:14:47;;;;;;;4.55;3.40;;;;;;;26.60;44.51;94568.78;4875883;29;20036;-81
2023/06/02 08:17:13;;;;;;;3.60;3.30;;;;;;;26.85;42.79;94562.44;4867477;29;20093;-84
2023/06/02 08:19:38;;;;;;;3.63;3.30;;;;;;;25.73;45.62;94569.66;4884686;29;20537;-82
2023/06/02 08:22:04;;;;;;;4.13;3.83;;;;;;;27.05;45.61;94564.91;4882595;29;20032;-83
2023/06/02 08:24:31;;;;;;;4.53;4.10;;;;;;;25.91;45.27;94572.47;4878838;29;20032;-83
2023/06/02 08:26:57;;;;;;;4.22;3.65;;;;;;;26.60;46.17;94558.94;4885159;29;20028;-89
2023/06/02 08:29:23;;;;;;;4.95;3.53;;;;;;;25.94;43.32;94561.31;4868956;29;20037;-87
2023/06/02 08:31:48;;;;;;;4.38;3.97;;;;;;;26.88;43.68;94556.56;4878952;29;20095;-85
2023/06/02 08:34:15;;;;;;;4.38;3.90;;;;;;;26.63;45.31;94555.72;4867447;29;20434;-80
2023/06/02 08:36:40;;;;;;;4.80;3.45;;;;;;;27.16;44.59;94550.44;4868470;29;20032;-86
2023/06/02 08:39:08;;;;;;;6.22;3.63;;;;;;;26.48;45.61;94545.25;4864808;29;20092;-80
2023/06/02 08:41:36;;;;;;;4.13;3.72;;;;;;;26.18;45.88;94546.28;4876891;29;20098;-81
2023/06/02 08:44:02;;;;;;;4.72;3.38;;;;;;;25.73;45.21;94538.59;4870345;29;20036;-87
2023/06/02 08:46:27;;;;;;;4.53;3.10;;;;;;;26.02;42.95;94531.50;4885139;29;20032;-81
2023/06/02 08:48:57;;;;;;;4.75;3.72;;;;;;;25.71;43.30;94535.44;4864782;29;20032;-87
2023/06/02 08:51:22;;;;;;;4.45;3.95;;;;;;;26.53;44.21;94534.56;4868258;29;20111;-79
2023/06/02 08:53:48;;;;;;;5.63;3.28;;;;;;;26.49;43.62;94533.53;4884566;29;20562;-78
2023/06/02 08:56:14;;;;;;;7.72;3.95;;;;;;;27.19;43.49;94523.25;4885035;29;20070;-81
2023/06/02 08:58:42;;;;;;;3.80;3.28;;;;;;;26.58;43.21;94523.91;4885531;29;20076;-79
2023/06/02 09:01:08;;;;;;;4.10;3.30;;;;;;;26.05;43.80;94517.69;4869285;29;20463;-82
2023/06/02 09:03:34;;;;;;;3.60;3.30;;;;;;;26.24;44.79;94514.38;4868265;29;20095;-81
2023/06/02 09:05:59;;;;;;;3.70;3.35;;;;;;;26.16;44.41;94505.16;4885527;29;20032;-83
2023/06/02 09:08:25;;;;;;;3.92;3.50;;;;;;;26.24;45.00;94507.19;4868235;29;20600;-81
2023/06/02 09:10:50;;;;;;;4.93;3.80;;;;;;;25.70;45.51;94507.31;4884839;29;20848;-83
2023/06/02 09:13:33;;;;;;;5.35;3.50;;;;;;;26.17;45.09;94501.41;4884148;29;20039;-81
2023/06/02 09:16:01;;;;;;;6.45;3.80;;;;;;;25.37;44.85;94502.69;4868925;29;20045;-81
2023/06/02 09:18:27;;;;;;;3.50;3.20;;;;;;;26.18;45.47;94489.72;4866226;29;20029;-81
2023/06/02 09:20:53;;;;;;;3.97;3.33;;;;;;;26.02;46.36;94498.84;4877040;29;20040;-85
2023/06/02 09:23:19;;;;;;;4.32;3.20;;;;;;;26.04;45.06;94488.75;4849825;29;20075;-87
2023/06/02 09:25:48;;;;;;;4.93;3.58;;;;;;;25.98;45.51;94490.66;4884458;29;20032;-78
2023/06/02 09:28:13;;;;;;;;;;;;;;;26.30;46.08;94494.69;4884824;29;20025;-87
2023/06/02 09:30:38;;;;;;;4.07;3.77;;;;;;;25.68;45.47;94494.34;4885295;29;19942;-77
2023/06/02 09:33:11;;;;;;;3.88;3.58;;;;;;;26.20;46.58;94493.66;4885102;29;20280;-79
2023/06/02 09:35:45;;;;;;;4.10;3.70;;;;;;;26.24;45.54;94488.59;4868884;29;20036;-82
2023/06/02 09:38:15;;;;;;;4.03;3.35;;;;;;;26.04;45.25;94486.09;4867088;29;20032;-80
2023/06/02 09:40:41;;;;;;;4.65;4.05;;;;;;;25.79;46.19;94487.06;4860647;29;20131;-79
2023/06/02 09:43:08;;;;;;;4.68;3.50;;;;;;;26.42;44.85;94479.94;4863884;29;20116;-84
2023/06/02 09:46:03;;;;;;;3.92;3.47;;;;;;;27.02;44.84;94475.06;4874058;29;20043;-77
2023/06/02 09:48:29;;;;;;;7.47;3.80;;;;;;;27.47;43.62;94485.13;4877296;29;20060;-76
2023/06/02 09:50:55;;;;;;;4.55;3.70;;;;;;;27.35;44.87;94473.31;4876849;29;20029;-76
2023/06/02 09:53:22;;;;;;;6.60;3.58;;;;;;;27.45;44.71;94481.19;4879679;29;20063;-76
2023/06/02 09:55:48;;;;;;;4.32;3.05;;;;;;;27.58;43.40;94478.56;4873023;29;20037;-85
2023/06/02 09:58:14;;;;;;;4.40;3.63;;;;;;;26.24;44.12;94469.22;4879044;29;20681;-83
2023/06/02 10:00:40;;;;;;;5.93;3.88;;;;;;;27.07;45.98;94469.66;4876383;29;20037;-82
2023/06/02 10:03:06;;;;;;;6.47;4.18;;;;;;;27.18;42.46;94463.16;4874626;29;20071;-81
2023/06/02 10:05:36;;;;;;;3.85;3.50;;;;;;;27.68;47.15;94464.31;4870558;29;20041;-78
2023/06/02 10:08:07;;;;;;;4.07;3.45;;;;;;;26.73;43.21;94454.63;4862598;29;20045;-74
2023/06/02 10:11:00;;;;;;;4.55;3.85;;;;;;;26.89;45.52;94459.78;4875731;29;20043;-88
2023/06/02 10:14:07;;;;;;;5.88;3.50;;;;;;;26.63;43.95;94462.72;4874867;29;20054;-82
2023/06/02 10:17:11;;;;;;;4.25;3.80;;;;;;;26.70;43.15;94459.72;4806548;29;20597;-82
2023/06/02 10:19:59;;;;;;;3.95;3.65;;;;;;;26.32;44.30;94458.78;4818576;29;20026;-79
2023/06/02 10:22:37;;;;;;;4.30;3.60;;;;;;;27.09;45.93;94446.25;4867987;29;20056;-77
2023/06/02 10:25:02;;;;;;;6.75;3.40;;;;;;;26.96;46.75;94439.75;4877721;29;20037;-75
2023/06/02 10:27:34;;;;;;;4.70;3.60;;;;;;;26.52;45.47;94434.66;4887941;29;20036;-77
2023/06/02 10:30:00;;;;;;;5.72;3.42;;;;;;;26.60;46.86;94436.69;4870142;29;20048;-78
2023/06/02 10:32:27;;;;;;;3.70;3.42;;;;;;;26.48;47.32;94433.66;4870301;29;20517;-75
2023/06/02 10:34:56;;;;;;;3.60;3.30;;;;;;;26.43;46.07;94431.03;4865694;29;20033;-76
2023/06/02 10:37:22;;;;;;;;;;;;;;;26.26;44.27;94436.00;4883948;29;20121;-84
2023/06/02 10:39:55;;;;;;;3.17;2.97;;;;;;;27.24;44.65;94433.53;4883001;29;19981;-81
2023/06/02 10:42:25;;;;;;;3.97;3.42;;;;;;;27.29;44.60;94435.34;4880094;29;20047;-84
2023/06/02 10:44:54;;;;;;;5.28;3.60;;;;;;;27.41;42.67;94422.38;4884557;29;20483;-81
2023/06/02 10:47:19;;;;;;;5.35;3.88;;;;;;;27.83;40.98;94423.38;4885913;29;20107;-84
2023/06/02 10:49:55;;;;;;;5.65;3.25;;;;;;;27.86;41.54;94417.47;4887332;29;20112;-82
2023/06/02 10:52:21;;;;;;;5.05;4.15;;;;;;;26.54;43.63;94416.56;4883915;29;20028;-81
2023/06/02 10:55:08;;;;;;;4.05;3.75;;;;;;;25.94;45.73;94414.50;4884250;29;20044;-79
2023/06/02 10:58:04;;;;;;;4.43;3.80;;;;;;;26.75;43.96;94409.13;4887824;29;20451;-79
2023/06/02 11:00:29;;;;;;;3.90;3.45;;;;;;;27.08;46.03;94410.06;4887316;29;20061;-78
2023/06/02 11:02:55;;;;;;;4.50;3.33;;;;;;;27.09;42.94;94409.00;4878296;29;20029;-82
2023/06/02 11:05:32;;;;;;;4.10;3.70;;;;;;;27.22;43.66;94411.75;4864530;29;20135;-80
2023/06/02 11:10:45;;;;;;;4.78;3.55;;;;;;;26.99;44.91;94401.97;4882432;29;20047;-81
2023/06/02 11:13:12;;;;;;;4.32;3.92;;;;;;;27.04;46.51;94401.88;4879151;29;20112;-81
2023/06/02 11:15:38;;;;;;;5.18;3.70;;;;;;;26.11;46.02;94402.38;4870719;29;20027;-78
2023/06/02 11:18:22;;;;;;;7.05;3.75;;;;;;;26.31;47.85;94400.63;4865353;29;20032;-74
2023/06/02 11:20:52;;;;;;;4.43;3.78;;;;;;;25.61;49.43;94403.63;4883593;29;20085;-75
2023/06/02 11:23:18;;;;;;;3.67;3.38;;;;;;;25.90;49.46;94406.31;4868024;29;20036;-76
2023/06/02 11:25:47;;;;;;;4.20;3.63;;;;;;;25.93;50.17;94399.63;4866247;29;20036;-77
2023/06/02 11:28:21;;;;;;;4.03;3.25;;;;;;;26.47;48.55;94410.81;4874021;29;20060;-74
2023/06/02 11:31:07;;;;;;;4.70;3.45;;;;;;;26.29;45.72;94389.50;4862119;29;20029;-76
2023/06/02 11:33:38;;;;;;;5.72;3.75;;;;;;;26.19;44.40;94388.53;4879580;29;20033;-76